Time;durP1;ratioP1;P1;durP2;ratioP2;P2;SDS_P1;SDS_P2;PMS_P1;PMS_P2;Temp;Humidity;BMP_temperature;BMP_pressure;BME280_temperature;BME280_humidity;BME280_pressure;Samples;Min_cycle;Max_cycle;Signal;HPM_P1;HPM_P2
2021/12/23 00:04:56;;;;;;;59.17;24.98;;;;;;;-5.13;100.00;96081.91;20599668;28;20046;-80
2021/12/23 00:14:57;;;;;;;54.28;22.77;;;;;;;-4.88;100.00;96079.63;20602456;28;20658;-81
2021/12/23 00:24:57;;;;;;;48.70;21.77;;;;;;;-4.76;100.00;96059.22;20599025;28;20469;-80
2021/12/23 00:34:57;;;;;;;49.20;21.35;;;;;;;-4.79;100.00;96049.25;20599802;28;20458;-81
2021/12/23 00:44:58;;;;;;;55.08;22.90;;;;;;;-4.92;100.00;96041.47;20601441;28;20038;-81
2021/12/23 00:54:58;;;;;;;48.40;21.77;;;;;;;-4.83;100.00;96037.72;20599628;28;20042;-79
2021/12/23 01:04:59;;;;;;;53.42;23.45;;;;;;;-4.87;100.00;96041.69;20581691;28;20050;-81
2021/12/23 01:15:13;;;;;;;52.92;23.15;;;;;;;-4.97;100.00;96036.09;20584688;28;20077;-83
2021/12/23 01:25:14;;;;;;;53.80;24.45;;;;;;;-4.88;100.00;96025.41;20595717;28;21343;-79
2021/12/23 01:35:15;;;;;;;58.75;24.38;;;;;;;-4.76;100.00;96001.56;20588054;28;20153;-82
2021/12/23 01:45:18;;;;;;;51.70;24.33;;;;;;;-4.51;100.00;95981.94;20599093;28;20289;-81
2021/12/23 01:55:19;;;;;;;59.25;25.98;;;;;;;-4.29;100.00;95990.31;20597825;28;20367;-81
2021/12/23 02:05:20;;;;;;;63.65;26.40;;;;;;;-4.16;100.00;95988.72;20554344;28;20050;-79
2021/12/23 02:15:21;;;;;;;69.35;28.98;;;;;;;-3.95;100.00;95983.31;20582247;28;22948;-79
2021/12/23 02:25:21;;;;;;;75.15;31.90;;;;;;;-3.87;100.00;95977.91;20580997;28;20050;-79
2021/12/23 02:35:24;;;;;;;79.07;30.67;;;;;;;-3.94;100.00;95968.56;20589369;28;20165;-83
2021/12/23 02:45:24;;;;;;;83.63;33.75;;;;;;;-3.99;100.00;95963.22;20583038;28;20046;-82
2021/12/23 02:55:25;;;;;;;88.65;33.75;;;;;;;-4.02;100.00;95946.31;20593207;28;20469;-79
2021/12/23 03:05:25;;;;;;;85.57;32.55;;;;;;;-4.10;100.00;95946.53;20582984;28;20050;-80
2021/12/23 03:15:26;;;;;;;73.97;30.65;;;;;;;-4.08;100.00;95926.44;20574387;28;20050;-79
2021/12/23 03:25:26;;;;;;;80.43;31.75;;;;;;;-4.07;100.00;95921.03;20594410;28;20053;-83
2021/12/23 03:35:26;;;;;;;77.25;29.23;;;;;;;-4.09;100.00;95924.81;20595360;28;20089;-81
2021/12/23 03:45:27;;;;;;;66.90;28.42;;;;;;;-4.05;100.00;95913.09;20579313;28;20043;-80
2021/12/23 03:55:27;;;;;;;71.63;30.08;;;;;;;-4.01;100.00;95905.72;20586271;28;20034;-80
2021/12/23 04:05:28;;;;;;;77.35;30.38;;;;;;;-4.06;100.00;95896.00;20573106;28;20050;-81
2021/12/23 04:15:28;;;;;;;77.68;30.75;;;;;;;-4.05;100.00;95876.88;20591294;28;20049;-80
2021/12/23 04:25:29;;;;;;;77.13;33.00;;;;;;;-4.10;100.00;95874.13;20609313;28;22197;-80
2021/12/23 04:35:29;;;;;;;78.05;30.88;;;;;;;-4.20;100.00;95865.97;20617832;28;20062;-81
2021/12/23 04:45:30;;;;;;;81.03;33.22;;;;;;;-4.15;100.00;95858.41;20585445;28;20125;-81
2021/12/23 04:55:31;;;;;;;93.13;34.08;;;;;;;-4.35;100.00;95858.44;20592890;28;20038;-80
2021/12/23 05:05:31;;;;;;;79.18;32.05;;;;;;;-4.42;100.00;95837.78;20601477;28;20042;-81
2021/12/23 05:15:32;;;;;;;90.72;32.88;;;;;;;-4.36;100.00;95826.63;20587343;28;20056;-78
2021/12/23 05:25:32;;;;;;;83.28;31.08;;;;;;;-4.45;100.00;95820.09;20583074;28;20065;-80
2021/12/23 05:35:33;;;;;;;99.13;34.05;;;;;;;-4.57;100.00;95825.09;20599430;28;20828;-80
2021/12/23 05:45:33;;;;;;;97.75;34.83;;;;;;;-4.58;100.00;95809.78;20589656;28;20046;-79
2021/12/23 05:55:34;;;;;;;105.53;36.20;;;;;;;-4.56;100.00;95824.06;20605898;28;20042;-80
2021/12/23 06:05:34;;;;;;;83.50;30.23;;;;;;;-4.59;100.00;95800.44;20584538;28;20316;-81
2021/12/23 06:15:35;;;;;;;93.13;34.03;;;;;;;-4.63;100.00;95812.19;20576580;28;20089;-81
2021/12/23 06:25:35;;;;;;;90.97;33.08;;;;;;;-4.69;100.00;95791.31;20602581;28;20048;-79
2021/12/23 06:35:36;;;;;;;85.22;31.92;;;;;;;-4.61;100.00;95787.72;20593350;28;20201;-82
2021/12/23 06:45:37;;;;;;;92.45;34.60;;;;;;;-4.60;100.00;95773.00;20589531;28;20038;-79
2021/12/23 06:55:37;;;;;;;100.32;34.50;;;;;;;-4.51;100.00;95782.13;20597010;28;20419;-81
2021/12/23 07:05:38;;;;;;;94.55;34.03;;;;;;;-4.49;100.00;95782.72;20537774;28;20070;-81
2021/12/23 07:15:38;;;;;;;95.13;31.48;;;;;;;-4.43;100.00;95781.91;20583052;28;20047;-82
2021/12/23 07:25:39;;;;;;;88.88;32.40;;;;;;;-4.40;100.00;95778.91;20605880;28;20131;-79
2021/12/23 07:35:40;;;;;;;85.50;32.50;;;;;;;-4.34;100.00;95790.25;20598999;28;20050;-80
2021/12/23 07:45:40;;;;;;;86.72;32.63;;;;;;;-4.22;100.00;95796.38;20559258;28;20054;-78
2021/12/23 07:55:42;;;;;;;89.18;29.98;;;;;;;-4.17;100.00;95793.16;20596456;28;20121;-79
2021/12/23 08:05:42;;;;;;;87.57;30.20;;;;;;;-4.04;100.00;95772.44;20606847;28;20061;-80
2021/12/23 08:15:43;;;;;;;84.72;31.35;;;;;;;-3.75;100.00;95749.59;20616356;28;20051;-83
2021/12/23 08:25:45;;;;;;;89.75;33.72;;;;;;;-3.54;100.00;95749.25;20617123;28;20058;-79
2021/12/23 08:35:45;;;;;;;77.85;31.25;;;;;;;-3.40;100.00;95754.34;20619497;28;20600;-80
2021/12/23 08:45:45;;;;;;;81.70;32.10;;;;;;;-3.33;100.00;95755.09;20610269;28;20062;-80
2021/12/23 08:55:46;;;;;;;86.95;30.70;;;;;;;-3.27;100.00;95751.66;20626736;28;20062;-79
2021/12/23 09:05:46;;;;;;;79.10;30.95;;;;;;;-3.16;100.00;95740.63;20591151;28;20173;-80
2021/12/23 09:15:47;;;;;;;84.68;32.67;;;;;;;-2.78;100.00;95739.66;20572070;28;20696;-80
2021/12/23 09:25:48;;;;;;;80.95;31.85;;;;;;;-2.40;100.00;95733.50;20553107;28;20100;-81
2021/12/23 09:35:49;;;;;;;86.85;34.45;;;;;;;-1.97;100.00;95724.00;20562372;28;20172;-81
2021/12/23 09:45:51;;;;;;;78.53;29.90;;;;;;;-1.83;100.00;95721.00;20574246;28;20069;-81
2021/12/23 09:55:51;;;;;;;99.40;40.75;;;;;;;-1.87;100.00;95719.88;20557742;28;20467;-82
2021/12/23 10:05:52;;;;;;;88.50;32.20;;;;;;;-1.65;100.00;95727.16;20562082;28;22120;-81
2021/12/23 10:46:51;;;;;;;82.50;31.02;;;;;;;-0.44;100.00;95659.13;20552705;28;20546;-82
2021/12/23 11:07:20;;;;;;;70.10;28.98;;;;;;;0.69;100.00;95634.97;20568505;28;20042;-81
2021/12/23 11:38:11;;;;;;;68.05;27.17;;;;;;;0.53;100.00;95595.69;20571365;28;20490;-80
2021/12/23 11:48:13;;;;;;;61.30;26.63;;;;;;;0.77;100.00;95590.25;20560713;28;20710;-81
2021/12/23 11:58:14;;;;;;;66.30;26.42;;;;;;;0.77;100.00;95551.94;20554093;28;20034;-81
2021/12/23 12:08:15;;;;;;;60.72;27.42;;;;;;;0.80;100.00;95548.88;20551661;28;20041;-81
2021/12/23 12:18:19;;;;;;;65.13;27.23;;;;;;;0.54;100.00;95549.56;20547252;28;20404;-82
2021/12/23 12:28:24;;;;;;;61.30;25.17;;;;;;;0.60;100.00;95518.13;20559427;28;20038;-80
2021/12/23 12:38:27;;;;;;;60.95;25.20;;;;;;;0.48;100.00;95501.03;20544817;28;20141;-80
2021/12/23 12:49:01;;;;;;;65.10;26.92;;;;;;;0.66;100.00;95489.53;20560287;28;20446;-81
2021/12/23 12:59:07;;;;;;;60.47;27.42;;;;;;;0.55;100.00;95483.38;20541759;28;20096;-82
2021/12/23 13:09:14;;;;;;;63.20;26.70;;;;;;;0.38;100.00;95457.38;20567482;28;20696;-82
2021/12/23 13:19:18;;;;;;;64.32;27.38;;;;;;;0.43;100.00;95454.03;20527870;28;20145;-80
2021/12/23 13:29:19;;;;;;;62.83;26.35;;;;;;;0.44;100.00;95435.56;20564990;28;20046;-82
2021/12/23 13:39:26;;;;;;;63.78;25.58;;;;;;;0.58;100.00;95418.53;20564269;28;20144;-83
2021/12/23 13:49:50;;;;;;;55.38;23.95;;;;;;;0.87;100.00;95420.94;20561687;28;20401;-83
2021/12/23 13:59:54;;;;;;;52.35;23.40;;;;;;;1.12;100.00;95436.03;20567966;28;20049;-81
2021/12/23 14:31:44;;;;;;;54.08;23.17;;;;;;;1.05;100.00;95419.81;20556618;28;20050;-81
2021/12/23 14:41:53;;;;;;;54.78;23.63;;;;;;;1.03;100.00;95427.09;20564135;28;20054;-81
2021/12/23 14:51:54;;;;;;;59.03;23.95;;;;;;;0.91;100.00;95424.63;20560167;28;20085;-83
2021/12/23 15:02:07;;;;;;;60.40;25.10;;;;;;;0.85;100.00;95417.00;20560676;28;20050;-82
2021/12/23 15:12:20;;;;;;;61.47;24.70;;;;;;;0.79;100.00;95422.16;20555057;28;20041;-81
2021/12/23 15:22:26;;;;;;;56.53;22.45;;;;;;;0.85;100.00;95417.78;20563684;28;20050;-82
2021/12/23 15:32:30;;;;;;;65.15;24.23;;;;;;;0.87;100.00;95426.16;20561907;28;20833;-83
2021/12/23 15:42:30;;;;;;;59.28;24.77;;;;;;;0.77;100.00;95426.03;20567502;28;20071;-84
2021/12/23 15:52:31;;;;;;;61.78;25.67;;;;;;;0.79;100.00;95416.16;20549192;28;20138;-82
2021/12/23 16:02:33;;;;;;;61.42;26.20;;;;;;;0.77;100.00;95434.66;20575197;28;20077;-82
2021/12/23 16:12:34;;;;;;;70.03;28.95;;;;;;;0.80;100.00;95434.19;20573084;28;20034;-82
2021/12/23 16:22:35;;;;;;;63.78;27.00;;;;;;;0.83;100.00;95434.72;20550704;28;20589;-84
2021/12/23 16:32:53;;;;;;;73.78;28.92;;;;;;;0.84;100.00;95444.09;20557099;28;20512;-82
2021/12/23 16:42:54;;;;;;;72.68;27.40;;;;;;;0.93;100.00;95430.38;20555792;28;21646;-80
2021/12/23 16:52:57;;;;;;;82.68;30.23;;;;;;;0.85;100.00;95436.03;20546005;28;20827;-83
2021/12/23 17:02:58;;;;;;;79.78;28.45;;;;;;;0.91;100.00;95436.88;20554126;28;22062;-81
2021/12/23 17:13:00;;;;;;;79.55;29.63;;;;;;;0.92;100.00;95439.25;20549864;28;20045;-80
2021/12/23 17:23:08;;;;;;;77.70;29.05;;;;;;;0.97;100.00;95431.47;20550618;28;20137;-80
2021/12/23 17:33:08;;;;;;;78.20;28.42;;;;;;;1.10;100.00;95445.16;20566025;28;20464;-81
2021/12/23 17:43:11;;;;;;;66.07;25.98;;;;;;;1.15;100.00;95445.22;20546495;28;20509;-83
2021/12/23 17:53:12;;;;;;;78.20;28.60;;;;;;;1.13;100.00;95457.72;20568146;28;20081;-83
2021/12/23 18:03:12;;;;;;;71.00;28.27;;;;;;;1.11;100.00;95444.13;20556988;28;20057;-84
2021/12/23 18:13:13;;;;;;;68.85;27.27;;;;;;;1.14;100.00;95444.41;20559966;28;20498;-83
2021/12/23 18:23:14;;;;;;;64.40;23.98;;;;;;;1.28;100.00;95444.03;20549508;28;20034;-80
2021/12/23 18:33:17;;;;;;;53.97;21.42;;;;;;;1.46;100.00;95440.28;20531600;28;20046;-80
2021/12/23 18:43:17;;;;;;;54.78;22.65;;;;;;;1.53;100.00;95444.25;20546139;28;20061;-80
2021/12/23 18:53:19;;;;;;;55.65;23.02;;;;;;;1.72;100.00;95449.88;20554932;28;20057;-80
2021/12/23 19:13:39;;;;;;;54.45;23.65;;;;;;;1.71;100.00;95424.81;20542678;28;21047;-81
2021/12/23 19:23:40;;;;;;;50.95;24.65;;;;;;;1.76;100.00;95424.84;20548635;28;20477;-82
2021/12/23 19:33:42;;;;;;;50.03;21.20;;;;;;;1.84;100.00;95401.91;20540416;28;20503;-82
2021/12/23 19:43:42;;;;;;;51.50;22.23;;;;;;;1.95;100.00;95388.66;20526435;28;20839;-81
2021/12/23 19:53:42;;;;;;;48.75;20.70;;;;;;;2.04;100.00;95393.41;20551743;28;20074;-81
2021/12/23 20:03:43;;;;;;;51.30;22.23;;;;;;;2.04;100.00;95394.19;20549918;28;20062;-81
2021/12/23 20:13:44;;;;;;;56.90;23.60;;;;;;;2.08;100.00;95376.19;20557709;28;20077;-83
2021/12/23 20:23:44;;;;;;;40.20;17.33;;;;;;;2.14;100.00;95362.91;20524537;28;20092;-83
2021/12/23 20:33:44;;;;;;;64.15;24.73;;;;;;;2.21;100.00;95370.53;20548829;28;20042;-81
2021/12/23 20:43:45;;;;;;;64.35;26.75;;;;;;;2.32;100.00;95373.97;20556034;28;20054;-82
2021/12/23 20:53:54;;;;;;;70.03;26.02;;;;;;;2.33;100.00;95391.22;20542331;28;20077;-82
2021/12/23 21:03:55;;;;;;;74.07;29.40;;;;;;;2.50;100.00;95378.75;20527521;28;20112;-82
2021/12/23 21:13:56;;;;;;;77.10;30.65;;;;;;;2.46;100.00;95362.00;20500234;28;20132;-82
2021/12/23 21:23:57;;;;;;;83.50;31.65;;;;;;;2.61;100.00;95351.56;20549019;28;20470;-84
2021/12/23 21:33:57;;;;;;;77.65;32.00;;;;;;;2.70;100.00;95341.41;20538516;28;20046;-83
2021/12/23 21:43:57;;;;;;;65.05;29.83;;;;;;;2.78;100.00;95324.44;20549281;28;21510;-81
2021/12/23 21:54:01;;;;;;;72.35;30.55;;;;;;;2.80;100.00;95330.19;20558991;28;20047;-85
2021/12/23 22:04:05;;;;;;;66.20;28.92;;;;;;;2.95;100.00;95316.34;20552323;28;20341;-84
2021/12/23 22:14:05;;;;;;;64.40;29.25;;;;;;;2.97;100.00;95332.56;20538861;28;20034;-84
2021/12/23 22:24:08;;;;;;;68.45;29.92;;;;;;;3.22;100.00;95340.41;20536851;28;20413;-81
2021/12/23 22:34:09;;;;;;;75.78;32.50;;;;;;;3.33;100.00;95351.69;20555204;28;20054;-82
2021/12/23 22:44:10;;;;;;;75.05;30.45;;;;;;;3.30;100.00;95341.72;20554060;28;20426;-83
2021/12/23 22:54:11;;;;;;;74.60;33.03;;;;;;;3.25;100.00;95328.66;20535193;28;20054;-83
2021/12/23 23:04:12;;;;;;;78.38;33.90;;;;;;;3.18;100.00;95323.66;20538194;28;20469;-85
2021/12/23 23:24:28;;;;;;;74.15;31.92;;;;;;;3.22;100.00;95329.16;20558246;28;20308;-84
2021/12/23 23:44:47;;;;;;;69.90;30.73;;;;;;;3.42;100.00;95308.22;20550399;28;20501;-81
2021/12/23 23:54:49;;;;;;;69.78;32.75;;;;;;;3.39;100.00;95306.16;20550213;28;20196;-83
